sensor_id;sensor_type;location;lat;lon;timestamp;pressure;altitude;pressure_sealevel;temperature
11849;BMP180;5983;49.966;8.052;2022-08-01T00:01:48;100557.00;;;22.80
11849;BMP180;5983;49.966;8.052;2022-08-01T00:04:17;100561.00;;;22.80
11849;BMP180;5983;49.966;8.052;2022-08-01T00:06:44;100554.00;;;22.70
11849;BMP180;5983;49.966;8.052;2022-08-01T00:09:10;100561.00;;;22.70
11849;BMP180;5983;49.966;8.052;2022-08-01T00:11:37;100552.00;;;22.70
11849;BMP180;5983;49.966;8.052;2022-08-01T00:14:04;100566.00;;;22.60
11849;BMP180;5983;49.966;8.052;2022-08-01T00:16:31;100563.00;;;22.60
11849;BMP180;5983;49.966;8.052;2022-08-01T00:18:58;100568.00;;;22.50
11849;BMP180;5983;49.966;8.052;2022-08-01T00:21:26;100567.00;;;22.40
11849;BMP180;5983;49.966;8.052;2022-08-01T00:23:53;100567.00;;;22.40
11849;BMP180;5983;49.966;8.052;2022-08-01T00:26:20;100574.00;;;22.30
11849;BMP180;5983;49.966;8.052;2022-08-01T00:28:47;100569.00;;;22.30
11849;BMP180;5983;49.966;8.052;2022-08-01T00:31:14;100571.00;;;22.30
11849;BMP180;5983;49.966;8.052;2022-08-01T00:33:41;100566.00;;;22.20
11849;BMP180;5983;49.966;8.052;2022-08-01T00:36:08;100568.00;;;22.20
11849;BMP180;5983;49.966;8.052;2022-08-01T00:38:36;100568.00;;;22.20
11849;BMP180;5983;49.966;8.052;2022-08-01T00:41:03;100565.00;;;22.20
11849;BMP180;5983;49.966;8.052;2022-08-01T00:43:30;100564.00;;;22.10
11849;BMP180;5983;49.966;8.052;2022-08-01T00:45:57;100568.00;;;22.10
11849;BMP180;5983;49.966;8.052;2022-08-01T00:48:24;100560.00;;;22.10
11849;BMP180;5983;49.966;8.052;2022-08-01T00:50:51;100557.00;;;22.00
11849;BMP180;5983;49.966;8.052;2022-08-01T00:53:17;100564.00;;;22.00
11849;BMP180;5983;49.966;8.052;2022-08-01T00:55:47;100559.00;;;21.90
11849;BMP180;5983;49.966;8.052;2022-08-01T00:58:14;100557.00;;;21.90
11849;BMP180;5983;49.966;8.052;2022-08-01T01:00:41;100563.00;;;21.90
11849;BMP180;5983;49.966;8.052;2022-08-01T01:03:08;100572.00;;;21.90
11849;BMP180;5983;49.966;8.052;2022-08-01T01:05:45;100570.00;;;21.80
11849;BMP180;5983;49.966;8.052;2022-08-01T01:08:24;100577.00;;;21.80
11849;BMP180;5983;49.966;8.052;2022-08-01T01:11:03;100567.00;;;21.80
11849;BMP180;5983;49.966;8.052;2022-08-01T01:13:37;100589.00;;;21.80
11849;BMP180;5983;49.966;8.052;2022-08-01T01:16:10;100570.00;;;21.70
11849;BMP180;5983;49.966;8.052;2022-08-01T01:18:44;100569.00;;;21.70
11849;BMP180;5983;49.966;8.052;2022-08-01T01:24:44;100574.00;;;21.70
11849;BMP180;5983;49.966;8.052;2022-08-01T01:27:21;100575.00;;;21.60
11849;BMP180;5983;49.966;8.052;2022-08-01T01:29:56;100579.00;;;21.60
11849;BMP180;5983;49.966;8.052;2022-08-01T01:32:30;100577.00;;;21.60
11849;BMP180;5983;49.966;8.052;2022-08-01T01:35:02;100574.00;;;21.50
11849;BMP180;5983;49.966;8.052;2022-08-01T01:37:33;100578.00;;;21.50
11849;BMP180;5983;49.966;8.052;2022-08-01T01:40:02;100578.00;;;21.40
11849;BMP180;5983;49.966;8.052;2022-08-01T01:42:31;100574.00;;;21.50
11849;BMP180;5983;49.966;8.052;2022-08-01T01:45:03;100573.00;;;21.40
11849;BMP180;5983;49.966;8.052;2022-08-01T01:47:32;100588.00;;;21.40
11849;BMP180;5983;49.966;8.052;2022-08-01T01:50:02;100581.00;;;21.40
11849;BMP180;5983;49.966;8.052;2022-08-01T01:52:31;100581.00;;;21.40
11849;BMP180;5983;49.966;8.052;2022-08-01T01:54:59;100579.00;;;21.40
11849;BMP180;5983;49.966;8.052;2022-08-01T01:57:29;100583.00;;;21.40
11849;BMP180;5983;49.966;8.052;2022-08-01T01:59:59;100590.00;;;21.40
11849;BMP180;5983;49.966;8.052;2022-08-01T02:02:28;100574.00;;;21.30
11849;BMP180;5983;49.966;8.052;2022-08-01T02:04:56;100582.00;;;21.30
11849;BMP180;5983;49.966;8.052;2022-08-01T02:07:26;100595.00;;;21.30
11849;BMP180;5983;49.966;8.052;2022-08-01T02:09:56;100589.00;;;21.20
11849;BMP180;5983;49.966;8.052;2022-08-01T02:12:24;100583.00;;;21.20
11849;BMP180;5983;49.966;8.052;2022-08-01T02:14:53;100582.00;;;21.10
11849;BMP180;5983;49.966;8.052;2022-08-01T02:17:24;100600.00;;;21.10
11849;BMP180;5983;49.966;8.052;2022-08-01T02:19:54;100592.00;;;21.00
11849;BMP180;5983;49.966;8.052;2022-08-01T02:22:27;100594.00;;;21.00
11849;BMP180;5983;49.966;8.052;2022-08-01T02:25:03;100593.00;;;21.00
11849;BMP180;5983;49.966;8.052;2022-08-01T02:27:37;100595.00;;;20.90
11849;BMP180;5983;49.966;8.052;2022-08-01T02:30:10;100589.00;;;20.90
11849;BMP180;5983;49.966;8.052;2022-08-01T02:32:45;100586.00;;;20.90
11849;BMP180;5983;49.966;8.052;2022-08-01T02:35:20;100586.00;;;20.80
11849;BMP180;5983;49.966;8.052;2022-08-01T02:37:48;100578.00;;;20.80
11849;BMP180;5983;49.966;8.052;2022-08-01T02:40:17;100586.00;;;20.80
11849;BMP180;5983;49.966;8.052;2022-08-01T02:42:50;100582.00;;;20.70
11849;BMP180;5983;49.966;8.052;2022-08-01T02:45:24;100586.00;;;20.70
11849;BMP180;5983;49.966;8.052;2022-08-01T02:47:57;100582.00;;;20.70
11849;BMP180;5983;49.966;8.052;2022-08-01T02:50:28;100578.00;;;20.70
11849;BMP180;5983;49.966;8.052;2022-08-01T02:52:57;100577.00;;;20.70
11849;BMP180;5983;49.966;8.052;2022-08-01T02:55:27;100586.00;;;20.70
11849;BMP180;5983;49.966;8.052;2022-08-01T02:57:56;100573.00;;;20.60
11849;BMP180;5983;49.966;8.052;2022-08-01T03:00:25;100578.00;;;20.70
11849;BMP180;5983;49.966;8.052;2022-08-01T03:02:55;100579.00;;;20.70
11849;BMP180;5983;49.966;8.052;2022-08-01T03:05:24;100579.00;;;20.70
11849;BMP180;5983;49.966;8.052;2022-08-01T03:07:54;100583.00;;;20.70
11849;BMP180;5983;49.966;8.052;2022-08-01T03:10:24;100578.00;;;20.70
11849;BMP180;5983;49.966;8.052;2022-08-01T03:12:54;100575.00;;;20.60
11849;BMP180;5983;49.966;8.052;2022-08-01T03:15:24;100573.00;;;20.60
11849;BMP180;5983;49.966;8.052;2022-08-01T03:17:56;100564.00;;;20.60
11849;BMP180;5983;49.966;8.052;2022-08-01T03:20:27;100566.00;;;20.60
11849;BMP180;5983;49.966;8.052;2022-08-01T03:22:56;100568.00;;;20.60
11849;BMP180;5983;49.966;8.052;2022-08-01T03:25:24;100563.00;;;20.50
11849;BMP180;5983;49.966;8.052;2022-08-01T03:27:58;100566.00;;;20.50
11849;BMP180;5983;49.966;8.052;2022-08-01T03:30:27;100572.00;;;20.50
11849;BMP180;5983;49.966;8.052;2022-08-01T03:32:56;100583.00;;;20.50
11849;BMP180;5983;49.966;8.052;2022-08-01T03:35:30;100580.00;;;20.50
11849;BMP180;5983;49.966;8.052;2022-08-01T03:38:02;100578.00;;;20.50
11849;BMP180;5983;49.966;8.052;2022-08-01T03:40:36;100581.00;;;20.60
11849;BMP180;5983;49.966;8.052;2022-08-01T03:43:07;100588.00;;;20.60
11849;BMP180;5983;49.966;8.052;2022-08-01T03:45:40;100597.00;;;20.60
11849;BMP180;5983;49.966;8.052;2022-08-01T03:48:16;100590.00;;;20.60
11849;BMP180;5983;49.966;8.052;2022-08-01T03:50:48;100599.00;;;20.50
11849;BMP180;5983;49.966;8.052;2022-08-01T03:53:24;100596.00;;;20.50
11849;BMP180;5983;49.966;8.052;2022-08-01T03:55:54;100604.00;;;20.50
11849;BMP180;5983;49.966;8.052;2022-08-01T03:58:22;100597.00;;;20.40
11849;BMP180;5983;49.966;8.052;2022-08-01T04:00:50;100597.00;;;20.40
11849;BMP180;5983;49.966;8.052;2022-08-01T04:03:18;100591.00;;;20.40
11849;BMP180;5983;49.966;8.052;2022-08-01T04:05:45;100594.00;;;20.30
11849;BMP180;5983;49.966;8.052;2022-08-01T04:08:12;100592.00;;;20.30
11849;BMP180;5983;49.966;8.052;2022-08-01T04:10:39;100597.00;;;20.30
11849;BMP180;5983;49.966;8.052;2022-08-01T04:13:07;100592.00;;;20.30
11849;BMP180;5983;49.966;8.052;2022-08-01T04:15:34;100582.00;;;20.30
11849;BMP180;5983;49.966;8.052;2022-08-01T04:18:01;100596.00;;;20.30
11849;BMP180;5983;49.966;8.052;2022-08-01T04:20:29;100596.00;;;20.20
11849;BMP180;5983;49.966;8.052;2022-08-01T04:22:56;100603.00;;;20.30
11849;BMP180;5983;49.966;8.052;2022-08-01T04:25:29;100595.00;;;20.20
11849;BMP180;5983;49.966;8.052;2022-08-01T04:28:01;100599.00;;;20.20
11849;BMP180;5983;49.966;8.052;2022-08-01T04:30:34;100601.00;;;20.20
11849;BMP180;5983;49.966;8.052;2022-08-01T04:33:04;100604.00;;;20.20
11849;BMP180;5983;49.966;8.052;2022-08-01T04:35:36;100621.00;;;20.20
11849;BMP180;5983;49.966;8.052;2022-08-01T04:38:07;100619.00;;;20.20
11849;BMP180;5983;49.966;8.052;2022-08-01T04:40:36;100615.00;;;20.30
11849;BMP180;5983;49.966;8.052;2022-08-01T04:43:03;100625.00;;;20.30
11849;BMP180;5983;49.966;8.052;2022-08-01T04:45:32;100622.00;;;20.30
11849;BMP180;5983;49.966;8.052;2022-08-01T04:48:00;100628.00;;;20.40
11849;BMP180;5983;49.966;8.052;2022-08-01T04:50:27;100620.00;;;20.40
11849;BMP180;5983;49.966;8.052;2022-08-01T04:52:55;100630.00;;;20.40
11849;BMP180;5983;49.966;8.052;2022-08-01T04:55:22;100635.00;;;20.40
11849;BMP180;5983;49.966;8.052;2022-08-01T04:57:49;100627.00;;;20.40
11849;BMP180;5983;49.966;8.052;2022-08-01T05:00:16;100632.00;;;20.40
11849;BMP180;5983;49.966;8.052;2022-08-01T05:02:43;100632.00;;;20.30
11849;BMP180;5983;49.966;8.052;2022-08-01T05:05:10;100636.00;;;20.30
11849;BMP180;5983;49.966;8.052;2022-08-01T05:07:37;100634.00;;;20.30
11849;BMP180;5983;49.966;8.052;2022-08-01T05:10:07;100634.00;;;20.40
11849;BMP180;5983;49.966;8.052;2022-08-01T05:12:35;100639.00;;;20.50
11849;BMP180;5983;49.966;8.052;2022-08-01T05:15:02;100638.00;;;20.60
11849;BMP180;5983;49.966;8.052;2022-08-01T05:17:29;100645.00;;;20.60
11849;BMP180;5983;49.966;8.052;2022-08-01T05:19:57;100646.00;;;20.70
11849;BMP180;5983;49.966;8.052;2022-08-01T05:22:24;100638.00;;;20.80
11849;BMP180;5983;49.966;8.052;2022-08-01T05:24:51;100645.00;;;20.90
11849;BMP180;5983;49.966;8.052;2022-08-01T05:27:20;100647.00;;;20.90
11849;BMP180;5983;49.966;8.052;2022-08-01T05:29:47;100652.00;;;21.00
11849;BMP180;5983;49.966;8.052;2022-08-01T05:32:14;100646.00;;;21.00
11849;BMP180;5983;49.966;8.052;2022-08-01T05:34:41;100651.00;;;21.00
11849;BMP180;5983;49.966;8.052;2022-08-01T05:37:08;100654.00;;;21.10
11849;BMP180;5983;49.966;8.052;2022-08-01T05:39:35;100646.00;;;21.10
11849;BMP180;5983;49.966;8.052;2022-08-01T05:42:02;100651.00;;;21.20
11849;BMP180;5983;49.966;8.052;2022-08-01T05:44:30;100655.00;;;21.30
11849;BMP180;5983;49.966;8.052;2022-08-01T05:46:57;100658.00;;;21.50
11849;BMP180;5983;49.966;8.052;2022-08-01T05:49:24;100650.00;;;21.60
11849;BMP180;5983;49.966;8.052;2022-08-01T05:51:51;100651.00;;;21.80
11849;BMP180;5983;49.966;8.052;2022-08-01T05:54:18;100653.00;;;22.00
11849;BMP180;5983;49.966;8.052;2022-08-01T05:56:45;100654.00;;;22.30
11849;BMP180;5983;49.966;8.052;2022-08-01T05:59:11;100658.00;;;22.50
11849;BMP180;5983;49.966;8.052;2022-08-01T06:01:40;100657.00;;;22.70
11849;BMP180;5983;49.966;8.052;2022-08-01T06:04:06;100657.00;;;22.70
11849;BMP180;5983;49.966;8.052;2022-08-01T06:06:33;100668.00;;;22.70
11849;BMP180;5983;49.966;8.052;2022-08-01T06:09:00;100669.00;;;22.80
11849;BMP180;5983;49.966;8.052;2022-08-01T06:11:27;100668.00;;;22.70
11849;BMP180;5983;49.966;8.052;2022-08-01T06:13:54;100663.00;;;22.80
11849;BMP180;5983;49.966;8.052;2022-08-01T06:16:20;100672.00;;;23.00
11849;BMP180;5983;49.966;8.052;2022-08-01T06:18:49;100673.00;;;23.20
11849;BMP180;5983;49.966;8.052;2022-08-01T06:21:16;100674.00;;;23.40
11849;BMP180;5983;49.966;8.052;2022-08-01T06:23:43;100678.00;;;23.60
11849;BMP180;5983;49.966;8.052;2022-08-01T06:26:10;100679.00;;;23.80
11849;BMP180;5983;49.966;8.052;2022-08-01T06:28:37;100682.00;;;24.00
11849;BMP180;5983;49.966;8.052;2022-08-01T06:31:04;100683.00;;;24.30
11849;BMP180;5983;49.966;8.052;2022-08-01T06:33:30;100676.00;;;24.40
11849;BMP180;5983;49.966;8.052;2022-08-01T06:35:59;100685.00;;;24.60
11849;BMP180;5983;49.966;8.052;2022-08-01T06:38:26;100689.00;;;24.70
11849;BMP180;5983;49.966;8.052;2022-08-01T06:40:53;100683.00;;;24.90
11849;BMP180;5983;49.966;8.052;2022-08-01T06:43:20;100685.00;;;25.00
11849;BMP180;5983;49.966;8.052;2022-08-01T06:45:47;100690.00;;;25.20
11849;BMP180;5983;49.966;8.052;2022-08-01T06:48:14;100691.00;;;25.40
11849;BMP180;5983;49.966;8.052;2022-08-01T06:50:41;100691.00;;;25.40
11849;BMP180;5983;49.966;8.052;2022-08-01T06:53:10;100693.00;;;25.50
11849;BMP180;5983;49.966;8.052;2022-08-01T06:55:36;100695.00;;;25.40
11849;BMP180;5983;49.966;8.052;2022-08-01T06:58:04;100688.00;;;25.40
11849;BMP180;5983;49.966;8.052;2022-08-01T07:00:31;100692.00;;;25.30
11849;BMP180;5983;49.966;8.052;2022-08-01T07:02:58;100686.00;;;25.20
11849;BMP180;5983;49.966;8.052;2022-08-01T07:05:25;100693.00;;;25.10
11849;BMP180;5983;49.966;8.052;2022-08-01T07:07:53;100686.00;;;25.00
11849;BMP180;5983;49.966;8.052;2022-08-01T07:10:21;100691.00;;;25.10
11849;BMP180;5983;49.966;8.052;2022-08-01T07:12:48;100685.00;;;25.10
11849;BMP180;5983;49.966;8.052;2022-08-01T07:15:15;100683.00;;;25.00
11849;BMP180;5983;49.966;8.052;2022-08-01T07:17:43;100681.00;;;25.20
11849;BMP180;5983;49.966;8.052;2022-08-01T07:20:12;100682.00;;;25.50
11849;BMP180;5983;49.966;8.052;2022-08-01T07:22:39;100680.00;;;25.80
11849;BMP180;5983;49.966;8.052;2022-08-01T07:25:07;100685.00;;;26.10
11849;BMP180;5983;49.966;8.052;2022-08-01T07:27:36;100684.00;;;26.30
11849;BMP180;5983;49.966;8.052;2022-08-01T07:30:05;100681.00;;;26.60
11849;BMP180;5983;49.966;8.052;2022-08-01T07:32:32;100679.00;;;26.70
11849;BMP180;5983;49.966;8.052;2022-08-01T07:35:00;100682.00;;;26.70
11849;BMP180;5983;49.966;8.052;2022-08-01T07:37:27;100676.00;;;26.70
11849;BMP180;5983;49.966;8.052;2022-08-01T07:39:54;100680.00;;;26.70
11849;BMP180;5983;49.966;8.052;2022-08-01T07:42:21;100680.00;;;26.70
11849;BMP180;5983;49.966;8.052;2022-08-01T07:44:49;100673.00;;;26.70
11849;BMP180;5983;49.966;8.052;2022-08-01T07:47:22;100675.00;;;26.80
11849;BMP180;5983;49.966;8.052;2022-08-01T07:49:49;100674.00;;;26.80
11849;BMP180;5983;49.966;8.052;2022-08-01T07:52:16;100675.00;;;26.90
11849;BMP180;5983;49.966;8.052;2022-08-01T07:54:43;100674.00;;;26.90
11849;BMP180;5983;49.966;8.052;2022-08-01T07:57:10;100677.00;;;26.90
11849;BMP180;5983;49.966;8.052;2022-08-01T07:59:37;100678.00;;;27.00
11849;BMP180;5983;49.966;8.052;2022-08-01T08:02:05;100677.00;;;27.10
11849;BMP180;5983;49.966;8.052;2022-08-01T08:04:32;100681.00;;;27.00
11849;BMP180;5983;49.966;8.052;2022-08-01T08:06:59;100688.00;;;26.90
11849;BMP180;5983;49.966;8.052;2022-08-01T08:09:26;100688.00;;;26.70
11849;BMP180;5983;49.966;8.052;2022-08-01T08:11:53;100690.00;;;26.50
11849;BMP180;5983;49.966;8.052;2022-08-01T08:14:20;100688.00;;;26.40
11849;BMP180;5983;49.966;8.052;2022-08-01T08:16:48;100694.00;;;26.20
11849;BMP180;5983;49.966;8.052;2022-08-01T08:19:16;100691.00;;;26.10
11849;BMP180;5983;49.966;8.052;2022-08-01T08:21:44;100692.00;;;26.10
11849;BMP180;5983;49.966;8.052;2022-08-01T08:24:11;100706.00;;;26.00
11849;BMP180;5983;49.966;8.052;2022-08-01T08:26:47;100697.00;;;26.00
11849;BMP180;5983;49.966;8.052;2022-08-01T08:29:14;100700.00;;;26.00
11849;BMP180;5983;49.966;8.052;2022-08-01T08:31:41;100696.00;;;26.00
11849;BMP180;5983;49.966;8.052;2022-08-01T08:34:08;100690.00;;;26.00
11849;BMP180;5983;49.966;8.052;2022-08-01T08:36:37;100697.00;;;26.10
11849;BMP180;5983;49.966;8.052;2022-08-01T08:39:04;100702.00;;;26.10
11849;BMP180;5983;49.966;8.052;2022-08-01T08:41:32;100701.00;;;26.20
11849;BMP180;5983;49.966;8.052;2022-08-01T08:44:01;100698.00;;;26.30
11849;BMP180;5983;49.966;8.052;2022-08-01T08:46:28;100697.00;;;26.30
11849;BMP180;5983;49.966;8.052;2022-08-01T08:49:00;100692.00;;;26.40
11849;BMP180;5983;49.966;8.052;2022-08-01T08:51:30;100688.00;;;26.50
11849;BMP180;5983;49.966;8.052;2022-08-01T08:54:00;100690.00;;;26.90
11849;BMP180;5983;49.966;8.052;2022-08-01T08:56:28;100683.00;;;27.20
11849;BMP180;5983;49.966;8.052;2022-08-01T08:59:00;100687.00;;;27.70
11849;BMP180;5983;49.966;8.052;2022-08-01T09:01:28;100688.00;;;28.00
11849;BMP180;5983;49.966;8.052;2022-08-01T09:03:58;100677.00;;;28.40
11849;BMP180;5983;49.966;8.052;2022-08-01T09:06:25;100681.00;;;28.60
11849;BMP180;5983;49.966;8.052;2022-08-01T09:08:53;100679.00;;;28.70
11849;BMP180;5983;49.966;8.052;2022-08-01T09:11:22;100679.00;;;28.70
11849;BMP180;5983;49.966;8.052;2022-08-01T09:14:03;100678.00;;;29.20
11849;BMP180;5983;49.966;8.052;2022-08-01T09:16:30;100673.00;;;29.30
11849;BMP180;5983;49.966;8.052;2022-08-01T09:19:09;100682.00;;;29.30
11849;BMP180;5983;49.966;8.052;2022-08-01T09:21:37;100676.00;;;29.30
11849;BMP180;5983;49.966;8.052;2022-08-01T09:24:14;100675.00;;;29.10
11849;BMP180;5983;49.966;8.052;2022-08-01T09:26:43;100683.00;;;28.90
11849;BMP180;5983;49.966;8.052;2022-08-01T09:29:19;100675.00;;;28.60
11849;BMP180;5983;49.966;8.052;2022-08-01T09:31:47;100684.00;;;28.50
11849;BMP180;5983;49.966;8.052;2022-08-01T09:34:16;100682.00;;;28.80
11849;BMP180;5983;49.966;8.052;2022-08-01T09:36:52;100687.00;;;29.20
11849;BMP180;5983;49.966;8.052;2022-08-01T09:39:23;100685.00;;;29.70
11849;BMP180;5983;49.966;8.052;2022-08-01T09:41:52;100688.00;;;30.10
11849;BMP180;5983;49.966;8.052;2022-08-01T09:44:36;100690.00;;;30.30
11849;BMP180;5983;49.966;8.052;2022-08-01T09:47:03;100684.00;;;30.30
11849;BMP180;5983;49.966;8.052;2022-08-01T09:49:32;100681.00;;;30.20
11849;BMP180;5983;49.966;8.052;2022-08-01T09:52:12;100681.00;;;30.20
11849;BMP180;5983;49.966;8.052;2022-08-01T09:54:40;100684.00;;;30.10
11849;BMP180;5983;49.966;8.052;2022-08-01T09:57:14;100678.00;;;29.80
11849;BMP180;5983;49.966;8.052;2022-08-01T09:59:44;100684.00;;;29.70
11849;BMP180;5983;49.966;8.052;2022-08-01T10:02:14;100677.00;;;29.60
11849;BMP180;5983;49.966;8.052;2022-08-01T10:04:48;100680.00;;;29.90
11849;BMP180;5983;49.966;8.052;2022-08-01T10:07:16;100686.00;;;30.20
11849;BMP180;5983;49.966;8.052;2022-08-01T10:09:45;100677.00;;;30.50
11849;BMP180;5983;49.966;8.052;2022-08-01T10:12:17;100677.00;;;30.80
11849;BMP180;5983;49.966;8.052;2022-08-01T10:14:46;100679.00;;;31.10
11849;BMP180;5983;49.966;8.052;2022-08-01T10:17:17;100680.00;;;31.30
11849;BMP180;5983;49.966;8.052;2022-08-01T10:19:45;100673.00;;;31.40
11849;BMP180;5983;49.966;8.052;2022-08-01T10:22:14;100667.00;;;31.60
11849;BMP180;5983;49.966;8.052;2022-08-01T10:24:45;100662.00;;;31.30
11849;BMP180;5983;49.966;8.052;2022-08-01T10:27:16;100670.00;;;31.20
11849;BMP180;5983;49.966;8.052;2022-08-01T10:29:51;100660.00;;;31.30
11849;BMP180;5983;49.966;8.052;2022-08-01T10:32:22;100667.00;;;31.60
11849;BMP180;5983;49.966;8.052;2022-08-01T10:34:49;100657.00;;;31.90
11849;BMP180;5983;49.966;8.052;2022-08-01T10:37:17;100665.00;;;32.20
11849;BMP180;5983;49.966;8.052;2022-08-01T10:39:44;100653.00;;;32.30
11849;BMP180;5983;49.966;8.052;2022-08-01T10:42:13;100660.00;;;32.50
11849;BMP180;5983;49.966;8.052;2022-08-01T10:44:40;100651.00;;;32.40
11849;BMP180;5983;49.966;8.052;2022-08-01T10:47:10;100651.00;;;32.20
11849;BMP180;5983;49.966;8.052;2022-08-01T10:49:43;100650.00;;;32.10
11849;BMP180;5983;49.966;8.052;2022-08-01T10:52:15;100650.00;;;32.10
11849;BMP180;5983;49.966;8.052;2022-08-01T10:54:42;100643.00;;;32.10
11849;BMP180;5983;49.966;8.052;2022-08-01T10:57:09;100639.00;;;32.10
11849;BMP180;5983;49.966;8.052;2022-08-01T10:59:49;100644.00;;;32.30
11849;BMP180;5983;49.966;8.052;2022-08-01T11:02:37;100635.00;;;32.40
11849;BMP180;5983;49.966;8.052;2022-08-01T11:05:12;100633.00;;;32.70
11849;BMP180;5983;49.966;8.052;2022-08-01T11:07:48;100633.00;;;32.50
11849;BMP180;5983;49.966;8.052;2022-08-01T11:10:24;100638.00;;;32.20
11849;BMP180;5983;49.966;8.052;2022-08-01T11:12:52;100632.00;;;31.70
11849;BMP180;5983;49.966;8.052;2022-08-01T11:15:23;100632.00;;;31.30
11849;BMP180;5983;49.966;8.052;2022-08-01T11:17:55;100633.00;;;31.40
11849;BMP180;5983;49.966;8.052;2022-08-01T11:20:24;100628.00;;;31.70
11849;BMP180;5983;49.966;8.052;2022-08-01T11:23:26;100637.00;;;32.00
11849;BMP180;5983;49.966;8.052;2022-08-01T11:26:13;100632.00;;;32.00
11849;BMP180;5983;49.966;8.052;2022-08-01T11:28:42;100625.00;;;31.80
11849;BMP180;5983;49.966;8.052;2022-08-01T11:31:29;100626.00;;;31.80
11849;BMP180;5983;49.966;8.052;2022-08-01T11:33:56;100620.00;;;32.10
11849;BMP180;5983;49.966;8.052;2022-08-01T11:36:24;100632.00;;;32.30
11849;BMP180;5983;49.966;8.052;2022-08-01T11:39:11;100622.00;;;32.10
11849;BMP180;5983;49.966;8.052;2022-08-01T11:41:39;100620.00;;;32.00
11849;BMP180;5983;49.966;8.052;2022-08-01T11:44:09;100617.00;;;32.10
11849;BMP180;5983;49.966;8.052;2022-08-01T11:47:03;100616.00;;;31.80
11849;BMP180;5983;49.966;8.052;2022-08-01T11:49:46;100612.00;;;31.70
11849;BMP180;5983;49.966;8.052;2022-08-01T11:52:18;100606.00;;;31.70
11849;BMP180;5983;49.966;8.052;2022-08-01T11:54:47;100610.00;;;31.80
11849;BMP180;5983;49.966;8.052;2022-08-01T11:57:19;100603.00;;;31.80
11849;BMP180;5983;49.966;8.052;2022-08-01T11:59:48;100604.00;;;31.80
11849;BMP180;5983;49.966;8.052;2022-08-01T12:02:19;100602.00;;;32.00
11849;BMP180;5983;49.966;8.052;2022-08-01T12:04:50;100603.00;;;32.10
11849;BMP180;5983;49.966;8.052;2022-08-01T12:07:18;100601.00;;;32.30
11849;BMP180;5983;49.966;8.052;2022-08-01T12:09:45;100605.00;;;32.50
11849;BMP180;5983;49.966;8.052;2022-08-01T12:12:16;100603.00;;;32.60
11849;BMP180;5983;49.966;8.052;2022-08-01T12:14:46;100602.00;;;32.50
11849;BMP180;5983;49.966;8.052;2022-08-01T12:17:28;100601.00;;;32.50
11849;BMP180;5983;49.966;8.052;2022-08-01T12:19:55;100597.00;;;32.40
11849;BMP180;5983;49.966;8.052;2022-08-01T12:22:23;100598.00;;;32.30
11849;BMP180;5983;49.966;8.052;2022-08-01T12:24:51;100606.00;;;32.10
11849;BMP180;5983;49.966;8.052;2022-08-01T12:27:27;100593.00;;;32.00
11849;BMP180;5983;49.966;8.052;2022-08-01T12:29:55;100593.00;;;31.90
11849;BMP180;5983;49.966;8.052;2022-08-01T12:32:27;100587.00;;;31.90
11849;BMP180;5983;49.966;8.052;2022-08-01T12:34:56;100590.00;;;32.00
11849;BMP180;5983;49.966;8.052;2022-08-01T12:37:23;100597.00;;;31.90
11849;BMP180;5983;49.966;8.052;2022-08-01T12:39:50;100594.00;;;31.90
11849;BMP180;5983;49.966;8.052;2022-08-01T12:42:17;100588.00;;;32.00
11849;BMP180;5983;49.966;8.052;2022-08-01T12:44:50;100589.00;;;31.80
11849;BMP180;5983;49.966;8.052;2022-08-01T12:47:18;100597.00;;;31.80
11849;BMP180;5983;49.966;8.052;2022-08-01T12:49:48;100601.00;;;31.70
11849;BMP180;5983;49.966;8.052;2022-08-01T12:52:16;100605.00;;;31.50
11849;BMP180;5983;49.966;8.052;2022-08-01T12:55:09;100602.00;;;31.30
11849;BMP180;5983;49.966;8.052;2022-08-01T12:57:38;100600.00;;;31.00
11849;BMP180;5983;49.966;8.052;2022-08-01T13:00:13;100599.00;;;30.80
11849;BMP180;5983;49.966;8.052;2022-08-01T13:02:41;100595.00;;;30.60
11849;BMP180;5983;49.966;8.052;2022-08-01T13:05:11;100599.00;;;30.50
11849;BMP180;5983;49.966;8.052;2022-08-01T13:07:41;100599.00;;;30.40
11849;BMP180;5983;49.966;8.052;2022-08-01T13:10:09;100580.00;;;30.30
11849;BMP180;5983;49.966;8.052;2022-08-01T13:12:37;100590.00;;;30.20
11849;BMP180;5983;49.966;8.052;2022-08-01T13:15:20;100591.00;;;30.10
11849;BMP180;5983;49.966;8.052;2022-08-01T13:17:49;100592.00;;;30.10
11849;BMP180;5983;49.966;8.052;2022-08-01T13:20:30;100592.00;;;30.00
11849;BMP180;5983;49.966;8.052;2022-08-01T13:23:12;100579.00;;;29.90
11849;BMP180;5983;49.966;8.052;2022-08-01T13:25:54;100587.00;;;29.90
11849;BMP180;5983;49.966;8.052;2022-08-01T13:28:24;100586.00;;;29.90
11849;BMP180;5983;49.966;8.052;2022-08-01T13:30:53;100582.00;;;29.90
11849;BMP180;5983;49.966;8.052;2022-08-01T13:33:21;100592.00;;;29.80
11849;BMP180;5983;49.966;8.052;2022-08-01T13:35:51;100591.00;;;29.70
11849;BMP180;5983;49.966;8.052;2022-08-01T13:38:19;100588.00;;;29.60
11849;BMP180;5983;49.966;8.052;2022-08-01T13:40:46;100588.00;;;29.50
11849;BMP180;5983;49.966;8.052;2022-08-01T13:43:12;100576.00;;;29.50
11849;BMP180;5983;49.966;8.052;2022-08-01T13:45:40;100583.00;;;29.50
11849;BMP180;5983;49.966;8.052;2022-08-01T13:48:07;100586.00;;;29.50
11849;BMP180;5983;49.966;8.052;2022-08-01T13:50:34;100571.00;;;29.40
11849;BMP180;5983;49.966;8.052;2022-08-01T13:53:02;100578.00;;;29.30
11849;BMP180;5983;49.966;8.052;2022-08-01T13:55:29;100588.00;;;29.20
11849;BMP180;5983;49.966;8.052;2022-08-01T13:57:56;100588.00;;;29.00
11849;BMP180;5983;49.966;8.052;2022-08-01T14:00:23;100573.00;;;28.90
11849;BMP180;5983;49.966;8.052;2022-08-01T14:02:50;100576.00;;;28.80
11849;BMP180;5983;49.966;8.052;2022-08-01T14:05:17;100567.00;;;28.80
11849;BMP180;5983;49.966;8.052;2022-08-01T14:07:44;100571.00;;;28.70
11849;BMP180;5983;49.966;8.052;2022-08-01T14:10:12;100566.00;;;28.60
11849;BMP180;5983;49.966;8.052;2022-08-01T14:12:39;100572.00;;;28.60
11849;BMP180;5983;49.966;8.052;2022-08-01T14:15:08;100580.00;;;28.60
11849;BMP180;5983;49.966;8.052;2022-08-01T14:17:35;100578.00;;;28.70
11849;BMP180;5983;49.966;8.052;2022-08-01T14:20:03;100574.00;;;28.70
11849;BMP180;5983;49.966;8.052;2022-08-01T14:22:31;100574.00;;;28.70
11849;BMP180;5983;49.966;8.052;2022-08-01T14:24:57;100582.00;;;28.70
11849;BMP180;5983;49.966;8.052;2022-08-01T14:27:26;100592.00;;;28.70